sensor_id;sensor_type;location;lat;lon;timestamp;P1;durP1;ratioP1;P2;durP2;ratioP2
17618;SDS011;8928;51.678;6.074;2023-10-19T00:02:28;25.07;;;14.37;;
17618;SDS011;8928;51.678;6.074;2023-10-19T00:05:14;25.67;;;14.20;;
17618;SDS011;8928;51.678;6.074;2023-10-19T00:08:03;26.77;;;14.40;;
17618;SDS011;8928;51.678;6.074;2023-10-19T00:11:00;27.13;;;14.60;;
17618;SDS011;8928;51.678;6.074;2023-10-19T00:13:50;24.73;;;14.43;;
17618;SDS011;8928;51.678;6.074;2023-10-19T00:16:36;27.80;;;15.80;;
17618;SDS011;8928;51.678;6.074;2023-10-19T00:19:23;25.57;;;15.07;;
17618;SDS011;8928;51.678;6.074;2023-10-19T00:22:13;25.97;;;14.67;;
17618;SDS011;8928;51.678;6.074;2023-10-19T00:25:07;28.43;;;15.07;;
17618;SDS011;8928;51.678;6.074;2023-10-19T00:27:58;33.83;;;15.77;;
17618;SDS011;8928;51.678;6.074;2023-10-19T00:30:46;28.10;;;15.67;;
17618;SDS011;8928;51.678;6.074;2023-10-19T00:36:10;27.93;;;15.73;;
17618;SDS011;8928;51.678;6.074;2023-10-19T00:38:58;32.10;;;16.00;;
17618;SDS011;8928;51.678;6.074;2023-10-19T00:41:48;34.40;;;16.10;;
17618;SDS011;8928;51.678;6.074;2023-10-19T00:47:17;30.93;;;15.60;;
17618;SDS011;8928;51.678;6.074;2023-10-19T00:50:09;33.93;;;16.33;;
17618;SDS011;8928;51.678;6.074;2023-10-19T00:53:01;31.57;;;15.87;;
17618;SDS011;8928;51.678;6.074;2023-10-19T00:55:52;30.33;;;15.33;;
17618;SDS011;8928;51.678;6.074;2023-10-19T00:58:41;26.07;;;14.80;;
17618;SDS011;8928;51.678;6.074;2023-10-19T01:01:33;27.70;;;15.77;;
17618;SDS011;8928;51.678;6.074;2023-10-19T01:04:25;29.77;;;16.33;;
17618;SDS011;8928;51.678;6.074;2023-10-19T01:07:19;28.90;;;15.33;;
17618;SDS011;8928;51.678;6.074;2023-10-19T01:10:12;30.90;;;15.70;;
17618;SDS011;8928;51.678;6.074;2023-10-19T01:13:05;32.77;;;16.03;;
17618;SDS011;8928;51.678;6.074;2023-10-19T01:15:54;28.57;;;15.80;;
17618;SDS011;8928;51.678;6.074;2023-10-19T01:18:41;29.33;;;15.43;;
17618;SDS011;8928;51.678;6.074;2023-10-19T01:21:29;31.80;;;15.73;;
17618;SDS011;8928;51.678;6.074;2023-10-19T01:24:24;32.87;;;16.10;;
17618;SDS011;8928;51.678;6.074;2023-10-19T01:27:25;28.57;;;15.47;;
17618;SDS011;8928;51.678;6.074;2023-10-19T01:30:14;29.23;;;15.93;;
17618;SDS011;8928;51.678;6.074;2023-10-19T01:33:03;29.97;;;15.97;;
17618;SDS011;8928;51.678;6.074;2023-10-19T01:35:58;28.03;;;15.37;;
17618;SDS011;8928;51.678;6.074;2023-10-19T01:38:57;30.40;;;15.50;;
17618;SDS011;8928;51.678;6.074;2023-10-19T01:41:48;27.80;;;15.73;;
17618;SDS011;8928;51.678;6.074;2023-10-19T01:44:36;28.43;;;14.83;;
17618;SDS011;8928;51.678;6.074;2023-10-19T01:47:22;28.70;;;15.60;;
17618;SDS011;8928;51.678;6.074;2023-10-19T01:50:10;28.50;;;15.73;;
17618;SDS011;8928;51.678;6.074;2023-10-19T01:55:32;28.00;;;15.83;;
17618;SDS011;8928;51.678;6.074;2023-10-19T01:58:25;29.00;;;16.27;;
17618;SDS011;8928;51.678;6.074;2023-10-19T02:01:11;31.07;;;15.00;;
17618;SDS011;8928;51.678;6.074;2023-10-19T02:04:05;30.17;;;15.90;;
17618;SDS011;8928;51.678;6.074;2023-10-19T02:06:54;31.37;;;15.93;;
17618;SDS011;8928;51.678;6.074;2023-10-19T02:09:41;30.57;;;15.60;;
17618;SDS011;8928;51.678;6.074;2023-10-19T02:12:28;27.70;;;15.03;;
17618;SDS011;8928;51.678;6.074;2023-10-19T02:15:20;28.80;;;15.07;;
17618;SDS011;8928;51.678;6.074;2023-10-19T02:18:07;29.80;;;14.47;;
17618;SDS011;8928;51.678;6.074;2023-10-19T02:20:54;25.93;;;14.20;;
17618;SDS011;8928;51.678;6.074;2023-10-19T02:23:41;25.73;;;14.00;;
17618;SDS011;8928;51.678;6.074;2023-10-19T02:26:28;29.10;;;14.30;;
17618;SDS011;8928;51.678;6.074;2023-10-19T02:29:16;28.10;;;14.93;;
17618;SDS011;8928;51.678;6.074;2023-10-19T02:32:05;27.40;;;14.40;;
17618;SDS011;8928;51.678;6.074;2023-10-19T02:34:51;28.53;;;13.93;;
17618;SDS011;8928;51.678;6.074;2023-10-19T02:37:38;28.27;;;13.97;;
17618;SDS011;8928;51.678;6.074;2023-10-19T02:40:24;23.47;;;13.17;;
17618;SDS011;8928;51.678;6.074;2023-10-19T02:43:16;27.73;;;14.27;;
17618;SDS011;8928;51.678;6.074;2023-10-19T02:46:02;24.90;;;13.67;;
17618;SDS011;8928;51.678;6.074;2023-10-19T02:48:51;26.10;;;13.63;;
17618;SDS011;8928;51.678;6.074;2023-10-19T02:51:38;25.63;;;13.23;;
17618;SDS011;8928;51.678;6.074;2023-10-19T02:54:25;27.23;;;13.50;;
17618;SDS011;8928;51.678;6.074;2023-10-19T02:57:15;27.43;;;13.60;;
17618;SDS011;8928;51.678;6.074;2023-10-19T03:00:02;24.30;;;13.40;;
17618;SDS011;8928;51.678;6.074;2023-10-19T03:02:54;25.33;;;13.10;;
17618;SDS011;8928;51.678;6.074;2023-10-19T03:36:30;22.60;;;11.63;;
17618;SDS011;8928;51.678;6.074;2023-10-19T03:39:18;21.27;;;11.80;;
17618;SDS011;8928;51.678;6.074;2023-10-19T03:42:06;19.77;;;11.47;;
17618;SDS011;8928;51.678;6.074;2023-10-19T04:18:34;20.10;;;9.37;;
17618;SDS011;8928;51.678;6.074;2023-10-19T04:21:25;16.57;;;8.27;;
17618;SDS011;8928;51.678;6.074;2023-10-19T04:27:06;16.30;;;7.67;;
17618;SDS011;8928;51.678;6.074;2023-10-19T04:29:53;16.43;;;7.73;;
17618;SDS011;8928;51.678;6.074;2023-10-19T04:32:41;14.47;;;7.70;;
17618;SDS011;8928;51.678;6.074;2023-10-19T04:35:30;15.07;;;7.33;;
17618;SDS011;8928;51.678;6.074;2023-10-19T04:38:19;15.40;;;7.07;;
17618;SDS011;8928;51.678;6.074;2023-10-19T04:41:06;12.03;;;6.80;;
17618;SDS011;8928;51.678;6.074;2023-10-19T04:43:54;11.20;;;6.17;;
17618;SDS011;8928;51.678;6.074;2023-10-19T04:46:43;12.77;;;6.27;;
17618;SDS011;8928;51.678;6.074;2023-10-19T04:49:31;14.03;;;5.63;;
17618;SDS011;8928;51.678;6.074;2023-10-19T04:52:20;9.90;;;5.20;;
17618;SDS011;8928;51.678;6.074;2023-10-19T04:57:42;15.70;;;5.50;;
17618;SDS011;8928;51.678;6.074;2023-10-19T05:00:29;12.90;;;5.40;;
17618;SDS011;8928;51.678;6.074;2023-10-19T05:03:18;9.83;;;5.10;;
17618;SDS011;8928;51.678;6.074;2023-10-19T05:06:05;8.97;;;4.87;;
17618;SDS011;8928;51.678;6.074;2023-10-19T05:08:54;15.00;;;5.77;;
17618;SDS011;8928;51.678;6.074;2023-10-19T05:11:42;15.07;;;5.03;;
17618;SDS011;8928;51.678;6.074;2023-10-19T05:58:33;9.23;;;3.17;;
17618;SDS011;8928;51.678;6.074;2023-10-19T06:01:20;14.77;;;3.10;;
17618;SDS011;8928;51.678;6.074;2023-10-19T06:04:07;11.93;;;2.80;;
17618;SDS011;8928;51.678;6.074;2023-10-19T06:06:56;11.43;;;3.00;;
17618;SDS011;8928;51.678;6.074;2023-10-19T06:09:43;13.07;;;2.80;;
17618;SDS011;8928;51.678;6.074;2023-10-19T06:12:30;10.37;;;2.80;;
17618;SDS011;8928;51.678;6.074;2023-10-19T06:15:19;12.33;;;3.00;;
17618;SDS011;8928;51.678;6.074;2023-10-19T06:18:09;18.30;;;3.03;;
17618;SDS011;8928;51.678;6.074;2023-10-19T06:20:56;11.27;;;2.60;;
17618;SDS011;8928;51.678;6.074;2023-10-19T06:23:43;12.10;;;2.90;;
17618;SDS011;8928;51.678;6.074;2023-10-19T06:26:30;11.33;;;2.70;;
17618;SDS011;8928;51.678;6.074;2023-10-19T06:29:18;14.43;;;2.60;;
17618;SDS011;8928;51.678;6.074;2023-10-19T06:32:06;13.13;;;2.80;;
17618;SDS011;8928;51.678;6.074;2023-10-19T06:34:54;15.83;;;2.77;;
17618;SDS011;8928;51.678;6.074;2023-10-19T06:37:43;12.97;;;2.60;;
17618;SDS011;8928;51.678;6.074;2023-10-19T06:40:30;17.17;;;2.87;;
17618;SDS011;8928;51.678;6.074;2023-10-19T06:43:21;16.87;;;2.80;;
17618;SDS011;8928;51.678;6.074;2023-10-19T06:46:13;10.70;;;2.60;;
17618;SDS011;8928;51.678;6.074;2023-10-19T06:49:01;8.90;;;2.77;;
17618;SDS011;8928;51.678;6.074;2023-10-19T06:51:48;13.90;;;3.30;;
17618;SDS011;8928;51.678;6.074;2023-10-19T06:54:36;21.33;;;3.10;;
17618;SDS011;8928;51.678;6.074;2023-10-19T06:57:23;11.13;;;2.97;;
17618;SDS011;8928;51.678;6.074;2023-10-19T07:00:10;20.43;;;3.00;;
17618;SDS011;8928;51.678;6.074;2023-10-19T07:03:01;20.23;;;3.13;;
17618;SDS011;8928;51.678;6.074;2023-10-19T07:05:50;9.67;;;2.90;;
17618;SDS011;8928;51.678;6.074;2023-10-19T07:08:38;12.13;;;2.70;;
17618;SDS011;8928;51.678;6.074;2023-10-19T07:11:26;23.80;;;3.17;;
17618;SDS011;8928;51.678;6.074;2023-10-19T07:14:13;14.13;;;3.10;;
17618;SDS011;8928;51.678;6.074;2023-10-19T07:17:00;11.77;;;3.30;;
17618;SDS011;8928;51.678;6.074;2023-10-19T07:19:48;13.70;;;2.70;;
17618;SDS011;8928;51.678;6.074;2023-10-19T07:22:36;12.27;;;3.00;;
17618;SDS011;8928;51.678;6.074;2023-10-19T07:25:24;10.23;;;2.80;;
17618;SDS011;8928;51.678;6.074;2023-10-19T07:28:12;15.37;;;3.17;;
17618;SDS011;8928;51.678;6.074;2023-10-19T07:30:59;12.60;;;3.17;;
17618;SDS011;8928;51.678;6.074;2023-10-19T07:33:46;12.77;;;3.00;;
17618;SDS011;8928;51.678;6.074;2023-10-19T07:36:35;20.17;;;3.10;;
17618;SDS011;8928;51.678;6.074;2023-10-19T07:39:23;12.33;;;2.60;;
17618;SDS011;8928;51.678;6.074;2023-10-19T07:42:12;13.50;;;2.80;;
17618;SDS011;8928;51.678;6.074;2023-10-19T07:44:59;17.00;;;2.77;;
17618;SDS011;8928;51.678;6.074;2023-10-19T07:47:46;11.67;;;2.67;;
17618;SDS011;8928;51.678;6.074;2023-10-19T07:50:33;11.90;;;2.87;;
17618;SDS011;8928;51.678;6.074;2023-10-19T07:53:21;16.93;;;3.00;;
17618;SDS011;8928;51.678;6.074;2023-10-19T07:56:11;13.00;;;2.63;;
17618;SDS011;8928;51.678;6.074;2023-10-19T07:58:58;11.20;;;3.00;;
17618;SDS011;8928;51.678;6.074;2023-10-19T08:01:45;14.43;;;3.20;;
17618;SDS011;8928;51.678;6.074;2023-10-19T08:04:32;9.37;;;2.87;;
17618;SDS011;8928;51.678;6.074;2023-10-19T08:07:19;15.50;;;3.20;;
17618;SDS011;8928;51.678;6.074;2023-10-19T08:10:07;8.63;;;2.60;;
17618;SDS011;8928;51.678;6.074;2023-10-19T08:12:57;14.50;;;2.80;;
17618;SDS011;8928;51.678;6.074;2023-10-19T08:15:44;16.13;;;3.10;;
17618;SDS011;8928;51.678;6.074;2023-10-19T08:18:31;15.33;;;3.03;;
17618;SDS011;8928;51.678;6.074;2023-10-19T08:21:20;12.17;;;2.80;;
17618;SDS011;8928;51.678;6.074;2023-10-19T08:24:08;11.13;;;2.57;;
17618;SDS011;8928;51.678;6.074;2023-10-19T08:26:59;12.93;;;3.00;;
17618;SDS011;8928;51.678;6.074;2023-10-19T08:29:47;11.10;;;3.00;;
17618;SDS011;8928;51.678;6.074;2023-10-19T08:32:34;15.17;;;3.30;;
17618;SDS011;8928;51.678;6.074;2023-10-19T08:35:21;12.70;;;2.90;;
17618;SDS011;8928;51.678;6.074;2023-10-19T08:38:10;13.97;;;2.83;;
17618;SDS011;8928;51.678;6.074;2023-10-19T08:40:57;13.93;;;3.10;;
17618;SDS011;8928;51.678;6.074;2023-10-19T08:43:45;10.40;;;2.93;;
17618;SDS011;8928;51.678;6.074;2023-10-19T08:46:35;12.33;;;3.13;;
17618;SDS011;8928;51.678;6.074;2023-10-19T08:49:22;11.53;;;3.40;;
17618;SDS011;8928;51.678;6.074;2023-10-19T08:52:11;8.27;;;2.73;;
17618;SDS011;8928;51.678;6.074;2023-10-19T08:55:00;11.00;;;3.00;;
17618;SDS011;8928;51.678;6.074;2023-10-19T08:57:47;12.25;;;2.95;;
17618;SDS011;8928;51.678;6.074;2023-10-19T09:00:43;7.10;;;2.70;;
17618;SDS011;8928;51.678;6.074;2023-10-19T09:03:33;8.77;;;2.53;;
17618;SDS011;8928;51.678;6.074;2023-10-19T09:06:20;8.77;;;2.77;;
17618;SDS011;8928;51.678;6.074;2023-10-19T09:09:08;10.63;;;2.60;;
17618;SDS011;8928;51.678;6.074;2023-10-19T09:12:02;16.17;;;3.10;;
17618;SDS011;8928;51.678;6.074;2023-10-19T09:14:49;14.47;;;2.70;;
17618;SDS011;8928;51.678;6.074;2023-10-19T09:17:36;9.05;;;2.53;;
17618;SDS011;8928;51.678;6.074;2023-10-19T09:20:26;7.13;;;2.58;;
17618;SDS011;8928;51.678;6.074;2023-10-19T09:23:13;11.32;;;3.00;;
17618;SDS011;8928;51.678;6.074;2023-10-19T09:26:01;10.93;;;2.47;;
17618;SDS011;8928;51.678;6.074;2023-10-19T09:28:49;9.53;;;2.60;;
17618;SDS011;8928;51.678;6.074;2023-10-19T09:31:37;13.43;;;2.80;;
17618;SDS011;8928;51.678;6.074;2023-10-19T09:34:26;6.97;;;2.45;;
17618;SDS011;8928;51.678;6.074;2023-10-19T09:37:18;9.75;;;2.70;;
17618;SDS011;8928;51.678;6.074;2023-10-19T09:40:06;8.88;;;2.30;;
17618;SDS011;8928;51.678;6.074;2023-10-19T09:42:57;9.73;;;2.47;;
17618;SDS011;8928;51.678;6.074;2023-10-19T09:45:52;9.18;;;2.58;;
17618;SDS011;8928;51.678;6.074;2023-10-19T09:48:45;11.68;;;2.60;;
17618;SDS011;8928;51.678;6.074;2023-10-19T09:51:33;10.00;;;2.20;;
17618;SDS011;8928;51.678;6.074;2023-10-19T09:54:25;8.98;;;2.60;;
17618;SDS011;8928;51.678;6.074;2023-10-19T09:57:21;8.13;;;2.33;;
17618;SDS011;8928;51.678;6.074;2023-10-19T10:00:24;8.05;;;2.25;;
17618;SDS011;8928;51.678;6.074;2023-10-19T10:06:29;12.35;;;2.53;;
17618;SDS011;8928;51.678;6.074;2023-10-19T10:09:17;9.85;;;2.22;;
17618;SDS011;8928;51.678;6.074;2023-10-19T10:12:16;11.00;;;2.38;;
17618;SDS011;8928;51.678;6.074;2023-10-19T10:15:05;13.43;;;2.10;;
17618;SDS011;8928;51.678;6.074;2023-10-19T10:17:53;12.07;;;2.03;;
17618;SDS011;8928;51.678;6.074;2023-10-19T10:20:43;10.30;;;2.42;;
17618;SDS011;8928;51.678;6.074;2023-10-19T10:23:30;9.82;;;2.20;;
17618;SDS011;8928;51.678;6.074;2023-10-19T10:26:18;12.25;;;2.20;;
17618;SDS011;8928;51.678;6.074;2023-10-19T10:29:12;10.38;;;1.90;;
17618;SDS011;8928;51.678;6.074;2023-10-19T10:32:05;10.60;;;1.95;;
17618;SDS011;8928;51.678;6.074;2023-10-19T10:34:55;15.18;;;2.08;;
17618;SDS011;8928;51.678;6.074;2023-10-19T10:37:45;10.70;;;2.15;;
17618;SDS011;8928;51.678;6.074;2023-10-19T10:40:43;10.70;;;1.70;;
17618;SDS011;8928;51.678;6.074;2023-10-19T10:43:30;10.52;;;2.10;;
17618;SDS011;8928;51.678;6.074;2023-10-19T10:46:18;14.15;;;2.05;;
17618;SDS011;8928;51.678;6.074;2023-10-19T10:49:07;15.13;;;1.90;;
17618;SDS011;8928;51.678;6.074;2023-10-19T10:51:56;9.45;;;1.90;;
17618;SDS011;8928;51.678;6.074;2023-10-19T10:54:43;11.77;;;1.95;;
17618;SDS011;8928;51.678;6.074;2023-10-19T10:57:30;13.98;;;2.08;;
17618;SDS011;8928;51.678;6.074;2023-10-19T11:00:18;9.35;;;1.90;;
17618;SDS011;8928;51.678;6.074;2023-10-19T11:03:09;7.93;;;1.90;;
17618;SDS011;8928;51.678;6.074;2023-10-19T11:06:02;14.20;;;2.50;;
17618;SDS011;8928;51.678;6.074;2023-10-19T11:08:50;11.43;;;2.90;;
17618;SDS011;8928;51.678;6.074;2023-10-19T11:11:37;11.63;;;2.70;;
17618;SDS011;8928;51.678;6.074;2023-10-19T11:14:25;10.38;;;2.90;;
17618;SDS011;8928;51.678;6.074;2023-10-19T11:17:13;5.88;;;2.65;;
17618;SDS011;8928;51.678;6.074;2023-10-19T11:20:01;9.48;;;3.05;;
17618;SDS011;8928;51.678;6.074;2023-10-19T11:22:50;11.05;;;2.92;;
17618;SDS011;8928;51.678;6.074;2023-10-19T11:25:41;8.00;;;2.78;;
17618;SDS011;8928;51.678;6.074;2023-10-19T11:28:28;7.68;;;2.58;;
17618;SDS011;8928;51.678;6.074;2023-10-19T11:31:18;12.85;;;2.83;;
17618;SDS011;8928;51.678;6.074;2023-10-19T11:34:07;9.93;;;2.42;;
17618;SDS011;8928;51.678;6.074;2023-10-19T11:36:57;8.02;;;1.80;;
17618;SDS011;8928;51.678;6.074;2023-10-19T11:39:44;7.90;;;1.88;;
17618;SDS011;8928;51.678;6.074;2023-10-19T11:42:32;12.77;;;1.90;;
17618;SDS011;8928;51.678;6.074;2023-10-19T11:45:19;8.65;;;1.73;;
17618;SDS011;8928;51.678;6.074;2023-10-19T11:48:06;11.25;;;1.70;;
17618;SDS011;8928;51.678;6.074;2023-10-19T11:50:54;9.57;;;1.60;;
17618;SDS011;8928;51.678;6.074;2023-10-19T11:53:42;11.23;;;1.60;;
17618;SDS011;8928;51.678;6.074;2023-10-19T11:56:29;13.27;;;1.67;;
17618;SDS011;8928;51.678;6.074;2023-10-19T11:59:16;11.77;;;1.95;;
17618;SDS011;8928;51.678;6.074;2023-10-19T12:02:04;11.20;;;1.60;;
17618;SDS011;8928;51.678;6.074;2023-10-19T12:04:52;10.95;;;1.70;;
17618;SDS011;8928;51.678;6.074;2023-10-19T12:07:39;8.27;;;1.58;;
17618;SDS011;8928;51.678;6.074;2023-10-19T12:10:31;8.23;;;1.60;;
17618;SDS011;8928;51.678;6.074;2023-10-19T12:13:20;13.75;;;1.88;;
17618;SDS011;8928;51.678;6.074;2023-10-19T12:16:09;11.43;;;1.80;;
17618;SDS011;8928;51.678;6.074;2023-10-19T12:18:57;8.98;;;1.63;;
17618;SDS011;8928;51.678;6.074;2023-10-19T12:21:44;12.02;;;1.60;;
17618;SDS011;8928;51.678;6.074;2023-10-19T12:24:32;13.50;;;1.70;;
17618;SDS011;8928;51.678;6.074;2023-10-19T12:27:20;10.02;;;1.50;;
17618;SDS011;8928;51.678;6.074;2023-10-19T12:30:10;11.05;;;1.80;;
17618;SDS011;8928;51.678;6.074;2023-10-19T12:33:04;10.32;;;1.80;;
17618;SDS011;8928;51.678;6.074;2023-10-19T12:35:56;8.27;;;1.70;;
17618;SDS011;8928;51.678;6.074;2023-10-19T12:38:44;11.07;;;1.40;;
17618;SDS011;8928;51.678;6.074;2023-10-19T12:41:32;10.73;;;1.70;;
17618;SDS011;8928;51.678;6.074;2023-10-19T12:44:21;8.93;;;1.70;;
17618;SDS011;8928;51.678;6.074;2023-10-19T12:47:08;10.52;;;1.50;;
17618;SDS011;8928;51.678;6.074;2023-10-19T12:49:58;13.05;;;1.85;;
17618;SDS011;8928;51.678;6.074;2023-10-19T12:52:46;14.50;;;2.17;;
17618;SDS011;8928;51.678;6.074;2023-10-19T12:55:33;11.77;;;2.33;;
17618;SDS011;8928;51.678;6.074;2023-10-19T12:58:22;13.15;;;2.08;;
17618;SDS011;8928;51.678;6.074;2023-10-19T13:01:10;12.57;;;2.45;;
17618;SDS011;8928;51.678;6.074;2023-10-19T13:04:01;11.18;;;1.95;;
17618;SDS011;8928;51.678;6.074;2023-10-19T13:06:59;9.35;;;2.15;;
17618;SDS011;8928;51.678;6.074;2023-10-19T13:09:48;12.98;;;2.30;;
17618;SDS011;8928;51.678;6.074;2023-10-19T13:12:35;12.60;;;2.35;;
17618;SDS011;8928;51.678;6.074;2023-10-19T13:15:22;13.55;;;2.40;;
17618;SDS011;8928;51.678;6.074;2023-10-19T13:18:15;13.35;;;2.53;;
17618;SDS011;8928;51.678;6.074;2023-10-19T13:21:04;11.90;;;2.33;;
17618;SDS011;8928;51.678;6.074;2023-10-19T13:23:54;14.80;;;3.00;;
17618;SDS011;8928;51.678;6.074;2023-10-19T13:26:41;13.95;;;2.55;;
17618;SDS011;8928;51.678;6.074;2023-10-19T13:29:32;12.48;;;2.13;;
17618;SDS011;8928;51.678;6.074;2023-10-19T13:32:22;13.88;;;2.40;;
17618;SDS011;8928;51.678;6.074;2023-10-19T13:35:11;11.88;;;2.22;;
17618;SDS011;8928;51.678;6.074;2023-10-19T13:37:58;12.68;;;2.30;;
17618;SDS011;8928;51.678;6.074;2023-10-19T13:40:45;13.00;;;2.50;;
17618;SDS011;8928;51.678;6.074;2023-10-19T13:43:34;10.82;;;2.30;;
17618;SDS011;8928;51.678;6.074;2023-10-19T13:46:21;11.35;;;2.50;;
17618;SDS011;8928;51.678;6.074;2023-10-19T13:49:09;12.88;;;2.35;;
17618;SDS011;8928;51.678;6.074;2023-10-19T13:51:58;12.05;;;2.45;;
17618;SDS011;8928;51.678;6.074;2023-10-19T13:54:45;13.68;;;2.40;;
17618;SDS011;8928;51.678;6.074;2023-10-19T13:57:32;9.73;;;2.35;;
17618;SDS011;8928;51.678;6.074;2023-10-19T14:00:19;15.55;;;2.47;;
17618;SDS011;8928;51.678;6.074;2023-10-19T14:03:09;15.23;;;2.60;;
17618;SDS011;8928;51.678;6.074;2023-10-19T14:05:58;15.68;;;2.55;;
17618;SDS011;8928;51.678;6.074;2023-10-19T14:08:47;13.43;;;2.55;;
17618;SDS011;8928;51.678;6.074;2023-10-19T14:11:34;13.00;;;2.75;;
17618;SDS011;8928;51.678;6.074;2023-10-19T14:14:21;14.20;;;2.90;;
17618;SDS011;8928;51.678;6.074;2023-10-19T14:17:08;11.40;;;2.95;;
17618;SDS011;8928;51.678;6.074;2023-10-19T14:19:55;10.77;;;2.80;;
17618;SDS011;8928;51.678;6.074;2023-10-19T14:22:42;13.98;;;3.20;;
17618;SDS011;8928;51.678;6.074;2023-10-19T14:25:35;18.73;;;3.60;;
17618;SDS011;8928;51.678;6.074;2023-10-19T14:28:23;16.77;;;3.35;;
17618;SDS011;8928;51.678;6.074;2023-10-19T14:31:10;13.32;;;3.58;;
17618;SDS011;8928;51.678;6.074;2023-10-19T14:33:58;13.52;;;3.63;;
17618;SDS011;8928;51.678;6.074;2023-10-19T14:36:45;17.05;;;3.70;;
17618;SDS011;8928;51.678;6.074;2023-10-19T14:39:32;17.75;;;3.60;;
17618;SDS011;8928;51.678;6.074;2023-10-19T14:42:21;14.98;;;3.53;;
17618;SDS011;8928;51.678;6.074;2023-10-19T14:45:08;18.10;;;3.95;;
17618;SDS011;8928;51.678;6.074;2023-10-19T14:47:57;17.80;;;3.58;;
17618;SDS011;8928;51.678;6.074;2023-10-19T14:50:45;14.27;;;3.67;;
17618;SDS011;8928;51.678;6.074;2023-10-19T14:53:32;15.67;;;3.60;;
17618;SDS011;8928;51.678;6.074;2023-10-19T14:56:19;11.43;;;3.23;;
17618;SDS011;8928;51.678;6.074;2023-10-19T14:59:08;14.77;;;3.50;;
17618;SDS011;8928;51.678;6.074;2023-10-19T15:01:56;13.77;;;3.50;;
17618;SDS011;8928;51.678;6.074;2023-10-19T15:04:45;18.27;;;3.33;;
17618;SDS011;8928;51.678;6.074;2023-10-19T15:07:32;14.63;;;3.63;;
17618;SDS011;8928;51.678;6.074;2023-10-19T15:10:19;16.57;;;3.97;;
17618;SDS011;8928;51.678;6.074;2023-10-19T15:13:07;19.97;;;3.70;;
17618;SDS011;8928;51.678;6.074;2023-10-19T15:15:55;14.33;;;3.43;;
17618;SDS011;8928;51.678;6.074;2023-10-19T15:18:43;16.77;;;3.23;;
17618;SDS011;8928;51.678;6.074;2023-10-19T15:21:30;18.80;;;3.30;;
17618;SDS011;8928;51.678;6.074;2023-10-19T15:24:17;15.50;;;3.47;;
17618;SDS011;8928;51.678;6.074;2023-10-19T15:27:04;14.50;;;3.23;;
17618;SDS011;8928;51.678;6.074;2023-10-19T15:29:51;14.82;;;3.42;;
17618;SDS011;8928;51.678;6.074;2023-10-19T15:32:39;13.52;;;3.38;;
17618;SDS011;8928;51.678;6.074;2023-10-19T15:35:27;15.48;;;3.67;;
17618;SDS011;8928;51.678;6.074;2023-10-19T15:38:14;11.65;;;2.63;;
17618;SDS011;8928;51.678;6.074;2023-10-19T15:41:01;12.35;;;2.92;;
17618;SDS011;8928;51.678;6.074;2023-10-19T15:43:49;13.35;;;2.83;;
17618;SDS011;8928;51.678;6.074;2023-10-19T15:46:36;11.60;;;2.47;;
17618;SDS011;8928;51.678;6.074;2023-10-19T15:49:26;11.27;;;2.65;;
17618;SDS011;8928;51.678;6.074;2023-10-19T15:52:17;13.32;;;2.72;;
17618;SDS011;8928;51.678;6.074;2023-10-19T15:55:06;13.00;;;3.05;;
17618;SDS011;8928;51.678;6.074;2023-10-19T15:57:53;15.83;;;3.10;;
17618;SDS011;8928;51.678;6.074;2023-10-19T16:00:41;14.87;;;3.37;;
17618;SDS011;8928;51.678;6.074;2023-10-19T16:03:28;10.60;;;2.73;;
17618;SDS011;8928;51.678;6.074;2023-10-19T16:06:17;13.10;;;3.47;;
17618;SDS011;8928;51.678;6.074;2023-10-19T16:09:04;13.43;;;3.90;;
17618;SDS011;8928;51.678;6.074;2023-10-19T16:11:52;11.97;;;4.50;;
17618;SDS011;8928;51.678;6.074;2023-10-19T16:14:39;14.87;;;3.90;;
17618;SDS011;8928;51.678;6.074;2023-10-19T16:17:26;16.50;;;4.20;;
17618;SDS011;8928;51.678;6.074;2023-10-19T16:20:14;16.70;;;3.83;;
17618;SDS011;8928;51.678;6.074;2023-10-19T16:23:02;17.20;;;3.90;;
17618;SDS011;8928;51.678;6.074;2023-10-19T16:25:56;13.47;;;3.30;;
17618;SDS011;8928;51.678;6.074;2023-10-19T16:28:44;9.87;;;3.60;;
17618;SDS011;8928;51.678;6.074;2023-10-19T16:31:32;15.43;;;3.47;;
17618;SDS011;8928;51.678;6.074;2023-10-19T16:34:21;14.70;;;4.27;;
17618;SDS011;8928;51.678;6.074;2023-10-19T16:37:08;12.33;;;4.70;;
17618;SDS011;8928;51.678;6.074;2023-10-19T16:39:56;17.07;;;4.73;;
17618;SDS011;8928;51.678;6.074;2023-10-19T16:42:44;14.97;;;4.80;;
17618;SDS011;8928;51.678;6.074;2023-10-19T16:45:31;15.23;;;4.07;;
17618;SDS011;8928;51.678;6.074;2023-10-19T16:48:18;14.30;;;4.23;;
17618;SDS011;8928;51.678;6.074;2023-10-19T16:51:06;13.50;;;4.53;;
17618;SDS011;8928;51.678;6.074;2023-10-19T16:53:53;13.07;;;4.63;;
17618;SDS011;8928;51.678;6.074;2023-10-19T16:56:41;15.77;;;5.00;;
17618;SDS011;8928;51.678;6.074;2023-10-19T16:59:32;16.80;;;5.30;;
17618;SDS011;8928;51.678;6.074;2023-10-19T17:02:19;16.33;;;4.60;;
17618;SDS011;8928;51.678;6.074;2023-10-19T17:05:06;18.63;;;4.67;;
17618;SDS011;8928;51.678;6.074;2023-10-19T17:07:54;17.23;;;6.83;;
17618;SDS011;8928;51.678;6.074;2023-10-19T17:10:41;14.90;;;4.93;;
17618;SDS011;8928;51.678;6.074;2023-10-19T17:13:30;20.73;;;5.37;;
17618;SDS011;8928;51.678;6.074;2023-10-19T17:16:17;11.60;;;5.07;;
17618;SDS011;8928;51.678;6.074;2023-10-19T17:19:04;17.23;;;5.00;;
17618;SDS011;8928;51.678;6.074;2023-10-19T17:21:51;21.53;;;6.10;;
17618;SDS011;8928;51.678;6.074;2023-10-19T17:24:38;17.10;;;5.93;;
17618;SDS011;8928;51.678;6.074;2023-10-19T17:27:25;18.40;;;5.57;;
17618;SDS011;8928;51.678;6.074;2023-10-19T17:30:14;20.00;;;6.53;;
17618;SDS011;8928;51.678;6.074;2023-10-19T17:33:01;16.10;;;5.83;;
17618;SDS011;8928;51.678;6.074;2023-10-19T17:35:48;15.37;;;5.40;;
17618;SDS011;8928;51.678;6.074;2023-10-19T17:38:35;18.43;;;6.20;;
17618;SDS011;8928;51.678;6.074;2023-10-19T17:41:22;15.33;;;5.73;;
17618;SDS011;8928;51.678;6.074;2023-10-19T17:44:10;18.33;;;6.10;;
17618;SDS011;8928;51.678;6.074;2023-10-19T17:46:59;16.40;;;6.10;;
17618;SDS011;8928;51.678;6.074;2023-10-19T17:49:46;19.50;;;5.90;;
17618;SDS011;8928;51.678;6.074;2023-10-19T17:52:33;15.23;;;5.40;;
17618;SDS011;8928;51.678;6.074;2023-10-19T17:55:20;16.30;;;6.00;;
17618;SDS011;8928;51.678;6.074;2023-10-19T17:58:07;24.53;;;9.83;;
17618;SDS011;8928;51.678;6.074;2023-10-19T18:00:54;19.80;;;7.20;;
17618;SDS011;8928;51.678;6.074;2023-10-19T18:03:43;18.90;;;6.60;;
17618;SDS011;8928;51.678;6.074;2023-10-19T18:06:30;14.80;;;6.60;;
17618;SDS011;8928;51.678;6.074;2023-10-19T18:09:17;16.03;;;7.43;;
17618;SDS011;8928;51.678;6.074;2023-10-19T18:12:05;17.27;;;6.90;;
17618;SDS011;8928;51.678;6.074;2023-10-19T18:14:52;21.63;;;7.60;;
17618;SDS011;8928;51.678;6.074;2023-10-19T18:17:39;15.83;;;7.70;;
17618;SDS011;8928;51.678;6.074;2023-10-19T18:20:29;18.70;;;8.27;;
17618;SDS011;8928;51.678;6.074;2023-10-19T18:23:16;26.37;;;10.17;;
17618;SDS011;8928;51.678;6.074;2023-10-19T18:26:03;21.60;;;8.47;;
17618;SDS011;8928;51.678;6.074;2023-10-19T18:28:51;24.53;;;8.37;;
17618;SDS011;8928;51.678;6.074;2023-10-19T18:31:38;17.57;;;9.03;;
17618;SDS011;8928;51.678;6.074;2023-10-19T18:34:25;34.83;;;10.33;;
17618;SDS011;8928;51.678;6.074;2023-10-19T18:37:14;22.03;;;8.80;;
17618;SDS011;8928;51.678;6.074;2023-10-19T18:40:02;27.23;;;9.77;;
17618;SDS011;8928;51.678;6.074;2023-10-19T18:42:50;22.77;;;9.27;;
17618;SDS011;8928;51.678;6.074;2023-10-19T18:45:26;23.40;;;9.53;;
17618;SDS011;8928;51.678;6.074;2023-10-19T18:48:13;22.07;;;9.23;;
17618;SDS011;8928;51.678;6.074;2023-10-19T18:51:00;19.30;;;9.73;;
17618;SDS011;8928;51.678;6.074;2023-10-19T18:53:50;24.20;;;9.87;;
17618;SDS011;8928;51.678;6.074;2023-10-19T18:56:37;27.47;;;9.80;;
17618;SDS011;8928;51.678;6.074;2023-10-19T18:59:24;30.73;;;9.80;;
17618;SDS011;8928;51.678;6.074;2023-10-19T19:02:11;21.77;;;9.93;;